sensor_id;sensor_type;location;lat;lon;timestamp;P1;durP1;ratioP1;P2;durP2;ratioP2
74471;SDS011;62920;53.572;10.050;2023-06-22T00:01:14;5.13;;;2.60;;
74471;SDS011;62920;53.572;10.050;2023-06-22T00:03:39;5.15;;;2.88;;
74471;SDS011;62920;53.572;10.050;2023-06-22T00:06:05;5.13;;;2.70;;
74471;SDS011;62920;53.572;10.050;2023-06-22T00:08:30;5.60;;;2.97;;
74471;SDS011;62920;53.572;10.050;2023-06-22T00:10:56;5.82;;;3.20;;
74471;SDS011;62920;53.572;10.050;2023-06-22T00:13:21;5.88;;;2.90;;
74471;SDS011;62920;53.572;10.050;2023-06-22T00:15:46;5.25;;;2.75;;
74471;SDS011;62920;53.572;10.050;2023-06-22T00:18:12;6.10;;;3.10;;
74471;SDS011;62920;53.572;10.050;2023-06-22T00:20:38;5.93;;;2.65;;
74471;SDS011;62920;53.572;10.050;2023-06-22T00:23:04;5.72;;;2.88;;
74471;SDS011;62920;53.572;10.050;2023-06-22T00:25:34;5.20;;;2.53;;
74471;SDS011;62920;53.572;10.050;2023-06-22T00:28:00;8.27;;;2.83;;
74471;SDS011;62920;53.572;10.050;2023-06-22T00:30:25;5.80;;;2.85;;
74471;SDS011;62920;53.572;10.050;2023-06-22T00:32:50;5.28;;;2.92;;
74471;SDS011;62920;53.572;10.050;2023-06-22T00:35:16;5.63;;;2.97;;
74471;SDS011;62920;53.572;10.050;2023-06-22T00:37:41;9.15;;;3.03;;
74471;SDS011;62920;53.572;10.050;2023-06-22T00:40:07;6.70;;;2.92;;
74471;SDS011;62920;53.572;10.050;2023-06-22T00:42:36;5.10;;;2.65;;
74471;SDS011;62920;53.572;10.050;2023-06-22T00:45:01;7.00;;;2.85;;
74471;SDS011;62920;53.572;10.050;2023-06-22T00:47:27;5.40;;;2.75;;
74471;SDS011;62920;53.572;10.050;2023-06-22T00:49:52;5.50;;;2.95;;
74471;SDS011;62920;53.572;10.050;2023-06-22T00:52:19;6.85;;;2.90;;
74471;SDS011;62920;53.572;10.050;2023-06-22T00:54:49;5.05;;;2.60;;
74471;SDS011;62920;53.572;10.050;2023-06-22T00:57:15;6.60;;;3.00;;
74471;SDS011;62920;53.572;10.050;2023-06-22T01:02:07;6.05;;;2.92;;
74471;SDS011;62920;53.572;10.050;2023-06-22T01:04:36;5.93;;;2.75;;
74471;SDS011;62920;53.572;10.050;2023-06-22T01:12:44;6.55;;;3.13;;
74471;SDS011;62920;53.572;10.050;2023-06-22T01:15:25;5.53;;;3.03;;
74471;SDS011;62920;53.572;10.050;2023-06-22T01:17:54;5.68;;;3.13;;
74471;SDS011;62920;53.572;10.050;2023-06-22T01:20:21;5.13;;;3.00;;
74471;SDS011;62920;53.572;10.050;2023-06-22T01:25:37;4.93;;;2.80;;
74471;SDS011;62920;53.572;10.050;2023-06-22T01:28:23;6.57;;;3.08;;
74471;SDS011;62920;53.572;10.050;2023-06-22T01:30:58;6.22;;;3.00;;
74471;SDS011;62920;53.572;10.050;2023-06-22T01:36:00;6.95;;;3.30;;
74471;SDS011;62920;53.572;10.050;2023-06-22T01:38:27;5.68;;;3.08;;
74471;SDS011;62920;53.572;10.050;2023-06-22T01:40:53;6.95;;;3.22;;
74471;SDS011;62920;53.572;10.050;2023-06-22T01:43:20;7.88;;;3.17;;
74471;SDS011;62920;53.572;10.050;2023-06-22T01:45:48;5.85;;;3.08;;
74471;SDS011;62920;53.572;10.050;2023-06-22T01:48:13;6.45;;;3.50;;
74471;SDS011;62920;53.572;10.050;2023-06-22T01:50:39;6.55;;;3.28;;
74471;SDS011;62920;53.572;10.050;2023-06-22T01:53:05;5.35;;;2.95;;
74471;SDS011;62920;53.572;10.050;2023-06-22T01:55:31;6.07;;;3.30;;
74471;SDS011;62920;53.572;10.050;2023-06-22T01:57:57;6.15;;;3.42;;
74471;SDS011;62920;53.572;10.050;2023-06-22T02:00:22;6.13;;;3.60;;
74471;SDS011;62920;53.572;10.050;2023-06-22T02:02:56;10.20;;;3.28;;
74471;SDS011;62920;53.572;10.050;2023-06-22T02:05:24;7.90;;;3.20;;
74471;SDS011;62920;53.572;10.050;2023-06-22T02:08:02;6.35;;;3.40;;
74471;SDS011;62920;53.572;10.050;2023-06-22T02:10:31;4.90;;;3.17;;
74471;SDS011;62920;53.572;10.050;2023-06-22T02:12:57;7.03;;;3.22;;
74471;SDS011;62920;53.572;10.050;2023-06-22T02:15:23;7.40;;;3.50;;
74471;SDS011;62920;53.572;10.050;2023-06-22T02:17:48;6.25;;;3.20;;
74471;SDS011;62920;53.572;10.050;2023-06-22T02:20:14;6.75;;;3.10;;
74471;SDS011;62920;53.572;10.050;2023-06-22T02:22:40;6.15;;;3.17;;
74471;SDS011;62920;53.572;10.050;2023-06-22T02:25:05;7.45;;;3.03;;
74471;SDS011;62920;53.572;10.050;2023-06-22T02:27:31;7.03;;;3.55;;
74471;SDS011;62920;53.572;10.050;2023-06-22T02:29:56;6.68;;;3.50;;
74471;SDS011;62920;53.572;10.050;2023-06-22T02:32:22;6.88;;;3.55;;
74471;SDS011;62920;53.572;10.050;2023-06-22T02:34:47;6.05;;;3.50;;
74471;SDS011;62920;53.572;10.050;2023-06-22T02:37:16;6.65;;;3.20;;
74471;SDS011;62920;53.572;10.050;2023-06-22T02:39:41;6.50;;;3.45;;
74471;SDS011;62920;53.572;10.050;2023-06-22T02:42:07;10.13;;;3.50;;
74471;SDS011;62920;53.572;10.050;2023-06-22T02:44:33;7.63;;;3.50;;
74471;SDS011;62920;53.572;10.050;2023-06-22T02:46:58;8.60;;;3.85;;
74471;SDS011;62920;53.572;10.050;2023-06-22T02:49:23;5.90;;;3.20;;
74471;SDS011;62920;53.572;10.050;2023-06-22T02:51:49;7.13;;;3.55;;
74471;SDS011;62920;53.572;10.050;2023-06-22T02:54:15;6.57;;;3.70;;
74471;SDS011;62920;53.572;10.050;2023-06-22T02:59:08;8.18;;;3.55;;
74471;SDS011;62920;53.572;10.050;2023-06-22T03:01:35;6.95;;;3.70;;
74471;SDS011;62920;53.572;10.050;2023-06-22T03:04:07;6.65;;;3.47;;
74471;SDS011;62920;53.572;10.050;2023-06-22T03:06:34;8.30;;;3.90;;
74471;SDS011;62920;53.572;10.050;2023-06-22T03:09:00;7.72;;;3.50;;
74471;SDS011;62920;53.572;10.050;2023-06-22T03:11:32;7.25;;;3.72;;
74471;SDS011;62920;53.572;10.050;2023-06-22T03:13:58;6.80;;;3.90;;
74471;SDS011;62920;53.572;10.050;2023-06-22T03:16:24;8.63;;;4.18;;
74471;SDS011;62920;53.572;10.050;2023-06-22T03:18:49;6.38;;;3.67;;
74471;SDS011;62920;53.572;10.050;2023-06-22T03:21:15;6.97;;;3.97;;
74471;SDS011;62920;53.572;10.050;2023-06-22T03:23:41;8.57;;;4.18;;
74471;SDS011;62920;53.572;10.050;2023-06-22T03:26:08;9.02;;;3.97;;
74471;SDS011;62920;53.572;10.050;2023-06-22T03:28:34;6.65;;;3.90;;
74471;SDS011;62920;53.572;10.050;2023-06-22T03:30:59;7.53;;;3.90;;
74471;SDS011;62920;53.572;10.050;2023-06-22T03:33:25;7.75;;;3.90;;
74471;SDS011;62920;53.572;10.050;2023-06-22T03:35:50;7.68;;;4.00;;
74471;SDS011;62920;53.572;10.050;2023-06-22T03:38:16;8.45;;;4.25;;
74471;SDS011;62920;53.572;10.050;2023-06-22T03:40:41;6.60;;;3.72;;
74471;SDS011;62920;53.572;10.050;2023-06-22T03:43:07;9.82;;;4.10;;
74471;SDS011;62920;53.572;10.050;2023-06-22T03:45:32;6.80;;;4.03;;
74471;SDS011;62920;53.572;10.050;2023-06-22T03:47:58;8.02;;;4.40;;
74471;SDS011;62920;53.572;10.050;2023-06-22T03:50:23;8.80;;;4.13;;
74471;SDS011;62920;53.572;10.050;2023-06-22T03:52:48;7.70;;;3.67;;
74471;SDS011;62920;53.572;10.050;2023-06-22T03:55:14;8.65;;;4.32;;
74471;SDS011;62920;53.572;10.050;2023-06-22T03:57:39;7.65;;;4.03;;
74471;SDS011;62920;53.572;10.050;2023-06-22T04:00:05;7.75;;;3.50;;
74471;SDS011;62920;53.572;10.050;2023-06-22T04:02:31;7.15;;;3.90;;
74471;SDS011;62920;53.572;10.050;2023-06-22T04:04:56;8.48;;;4.07;;
74471;SDS011;62920;53.572;10.050;2023-06-22T04:07:21;9.20;;;4.38;;
74471;SDS011;62920;53.572;10.050;2023-06-22T04:09:47;8.80;;;4.10;;
74471;SDS011;62920;53.572;10.050;2023-06-22T04:12:12;7.93;;;4.30;;
74471;SDS011;62920;53.572;10.050;2023-06-22T04:14:38;8.93;;;4.30;;
74471;SDS011;62920;53.572;10.050;2023-06-22T04:17:03;8.65;;;4.55;;
74471;SDS011;62920;53.572;10.050;2023-06-22T04:19:29;8.23;;;4.28;;
74471;SDS011;62920;53.572;10.050;2023-06-22T04:21:54;9.77;;;4.57;;
74471;SDS011;62920;53.572;10.050;2023-06-22T04:24:20;9.00;;;4.30;;
74471;SDS011;62920;53.572;10.050;2023-06-22T04:26:45;7.25;;;4.05;;
74471;SDS011;62920;53.572;10.050;2023-06-22T04:29:12;8.48;;;4.28;;
74471;SDS011;62920;53.572;10.050;2023-06-22T04:31:38;7.20;;;4.32;;
74471;SDS011;62920;53.572;10.050;2023-06-22T04:34:04;9.50;;;4.28;;
74471;SDS011;62920;53.572;10.050;2023-06-22T04:36:36;8.20;;;4.40;;
74471;SDS011;62920;53.572;10.050;2023-06-22T04:39:12;9.10;;;4.53;;
74471;SDS011;62920;53.572;10.050;2023-06-22T04:41:38;6.63;;;4.22;;
74471;SDS011;62920;53.572;10.050;2023-06-22T04:44:17;7.78;;;4.28;;
74471;SDS011;62920;53.572;10.050;2023-06-22T04:46:52;7.05;;;3.88;;
74471;SDS011;62920;53.572;10.050;2023-06-22T04:49:19;5.45;;;3.40;;
74471;SDS011;62920;53.572;10.050;2023-06-22T04:51:45;8.27;;;4.10;;
74471;SDS011;62920;53.572;10.050;2023-06-22T04:54:11;7.20;;;4.00;;
74471;SDS011;62920;53.572;10.050;2023-06-22T04:56:36;6.70;;;3.80;;
74471;SDS011;62920;53.572;10.050;2023-06-22T04:59:02;7.90;;;4.00;;
74471;SDS011;62920;53.572;10.050;2023-06-22T05:01:30;6.45;;;3.65;;
74471;SDS011;62920;53.572;10.050;2023-06-22T05:03:56;10.35;;;4.15;;
74471;SDS011;62920;53.572;10.050;2023-06-22T05:06:22;7.28;;;3.80;;
74471;SDS011;62920;53.572;10.050;2023-06-22T05:08:52;8.40;;;4.35;;
74471;SDS011;62920;53.572;10.050;2023-06-22T05:11:22;8.10;;;3.95;;
74471;SDS011;62920;53.572;10.050;2023-06-22T05:13:48;6.57;;;4.00;;
74471;SDS011;62920;53.572;10.050;2023-06-22T05:16:13;6.72;;;3.55;;
74471;SDS011;62920;53.572;10.050;2023-06-22T05:18:38;10.23;;;4.05;;
74471;SDS011;62920;53.572;10.050;2023-06-22T05:21:04;7.00;;;3.80;;
74471;SDS011;62920;53.572;10.050;2023-06-22T05:23:29;8.57;;;3.33;;
74471;SDS011;62920;53.572;10.050;2023-06-22T05:25:54;7.57;;;3.50;;
74471;SDS011;62920;53.572;10.050;2023-06-22T05:28:22;8.93;;;3.20;;
74471;SDS011;62920;53.572;10.050;2023-06-22T05:30:49;9.10;;;3.55;;
74471;SDS011;62920;53.572;10.050;2023-06-22T05:33:14;7.22;;;2.85;;
74471;SDS011;62920;53.572;10.050;2023-06-22T05:35:40;8.18;;;3.28;;
74471;SDS011;62920;53.572;10.050;2023-06-22T05:38:05;9.48;;;3.10;;
74471;SDS011;62920;53.572;10.050;2023-06-22T05:40:31;6.43;;;3.22;;
74471;SDS011;62920;53.572;10.050;2023-06-22T05:42:56;8.70;;;3.30;;
74471;SDS011;62920;53.572;10.050;2023-06-22T05:45:21;5.75;;;2.55;;
74471;SDS011;62920;53.572;10.050;2023-06-22T05:47:47;6.82;;;2.75;;
74471;SDS011;62920;53.572;10.050;2023-06-22T05:50:12;7.75;;;2.80;;
74471;SDS011;62920;53.572;10.050;2023-06-22T05:52:37;7.38;;;2.60;;
74471;SDS011;62920;53.572;10.050;2023-06-22T05:55:03;6.75;;;2.80;;
74471;SDS011;62920;53.572;10.050;2023-06-22T05:57:28;5.68;;;2.75;;
74471;SDS011;62920;53.572;10.050;2023-06-22T05:59:54;6.32;;;2.53;;
74471;SDS011;62920;53.572;10.050;2023-06-22T06:02:19;5.93;;;2.75;;
74471;SDS011;62920;53.572;10.050;2023-06-22T06:04:45;5.07;;;2.35;;
74471;SDS011;62920;53.572;10.050;2023-06-22T06:07:10;5.70;;;2.80;;
74471;SDS011;62920;53.572;10.050;2023-06-22T06:09:36;6.18;;;2.80;;
74471;SDS011;62920;53.572;10.050;2023-06-22T06:12:01;4.30;;;2.25;;
74471;SDS011;62920;53.572;10.050;2023-06-22T06:14:28;9.07;;;2.88;;
74471;SDS011;62920;53.572;10.050;2023-06-22T06:16:53;17.05;;;2.97;;
74471;SDS011;62920;53.572;10.050;2023-06-22T06:19:19;8.57;;;2.50;;
74471;SDS011;62920;53.572;10.050;2023-06-22T06:21:44;10.20;;;2.55;;
74471;SDS011;62920;53.572;10.050;2023-06-22T06:24:09;6.53;;;2.40;;
74471;SDS011;62920;53.572;10.050;2023-06-22T06:26:35;7.40;;;2.20;;
74471;SDS011;62920;53.572;10.050;2023-06-22T06:29:00;5.43;;;2.53;;
74471;SDS011;62920;53.572;10.050;2023-06-22T06:31:27;4.63;;;2.63;;
74471;SDS011;62920;53.572;10.050;2023-06-22T06:36:19;5.22;;;2.45;;
74471;SDS011;62920;53.572;10.050;2023-06-22T06:38:44;6.75;;;3.03;;
74471;SDS011;62920;53.572;10.050;2023-06-22T06:41:11;4.55;;;2.33;;
74471;SDS011;62920;53.572;10.050;2023-06-22T06:43:37;5.10;;;2.67;;
74471;SDS011;62920;53.572;10.050;2023-06-22T06:46:02;6.72;;;2.92;;
74471;SDS011;62920;53.572;10.050;2023-06-22T06:48:28;6.88;;;2.45;;
74471;SDS011;62920;53.572;10.050;2023-06-22T06:50:53;6.90;;;2.30;;
74471;SDS011;62920;53.572;10.050;2023-06-22T06:53:18;4.82;;;2.55;;
74471;SDS011;62920;53.572;10.050;2023-06-22T06:55:44;6.28;;;2.65;;
74471;SDS011;62920;53.572;10.050;2023-06-22T06:58:10;6.75;;;2.78;;
74471;SDS011;62920;53.572;10.050;2023-06-22T07:00:38;5.40;;;2.53;;
74471;SDS011;62920;53.572;10.050;2023-06-22T07:03:03;5.85;;;2.75;;
74471;SDS011;62920;53.572;10.050;2023-06-22T07:05:29;7.95;;;2.30;;
74471;SDS011;62920;53.572;10.050;2023-06-22T07:07:54;7.82;;;2.60;;
74471;SDS011;62920;53.572;10.050;2023-06-22T07:10:20;5.70;;;2.70;;
74471;SDS011;62920;53.572;10.050;2023-06-22T07:12:45;5.13;;;2.33;;
74471;SDS011;62920;53.572;10.050;2023-06-22T07:15:11;7.30;;;2.38;;
74471;SDS011;62920;53.572;10.050;2023-06-22T07:20:04;5.97;;;2.38;;
74471;SDS011;62920;53.572;10.050;2023-06-22T07:22:44;4.65;;;2.33;;
74471;SDS011;62920;53.572;10.050;2023-06-22T07:25:12;5.75;;;2.60;;
74471;SDS011;62920;53.572;10.050;2023-06-22T07:30:22;6.75;;;2.25;;
74471;SDS011;62920;53.572;10.050;2023-06-22T07:32:48;8.10;;;2.33;;
74471;SDS011;62920;53.572;10.050;2023-06-22T07:35:13;9.48;;;2.50;;
74471;SDS011;62920;53.572;10.050;2023-06-22T07:37:41;8.80;;;2.55;;
74471;SDS011;62920;53.572;10.050;2023-06-22T07:40:06;6.43;;;1.88;;
74471;SDS011;62920;53.572;10.050;2023-06-22T07:44:58;6.47;;;2.30;;
74471;SDS011;62920;53.572;10.050;2023-06-22T07:47:23;5.97;;;2.50;;
74471;SDS011;62920;53.572;10.050;2023-06-22T07:49:53;4.53;;;2.13;;
74471;SDS011;62920;53.572;10.050;2023-06-22T07:52:23;6.25;;;2.10;;
74471;SDS011;62920;53.572;10.050;2023-06-22T07:54:50;5.60;;;2.50;;
74471;SDS011;62920;53.572;10.050;2023-06-22T07:57:16;4.50;;;2.22;;
74471;SDS011;62920;53.572;10.050;2023-06-22T07:59:41;4.15;;;1.80;;
74471;SDS011;62920;53.572;10.050;2023-06-22T08:02:06;4.25;;;2.33;;
74471;SDS011;62920;53.572;10.050;2023-06-22T08:04:33;4.03;;;2.15;;
74471;SDS011;62920;53.572;10.050;2023-06-22T08:06:59;5.10;;;2.05;;
74471;SDS011;62920;53.572;10.050;2023-06-22T08:09:25;5.18;;;2.08;;
74471;SDS011;62920;53.572;10.050;2023-06-22T08:11:52;5.43;;;2.20;;
74471;SDS011;62920;53.572;10.050;2023-06-22T08:14:19;5.07;;;2.35;;
74471;SDS011;62920;53.572;10.050;2023-06-22T08:16:44;5.20;;;2.33;;
74471;SDS011;62920;53.572;10.050;2023-06-22T08:19:09;5.65;;;2.35;;
74471;SDS011;62920;53.572;10.050;2023-06-22T08:21:35;8.50;;;2.20;;
74471;SDS011;62920;53.572;10.050;2023-06-22T08:24:00;6.50;;;2.20;;
74471;SDS011;62920;53.572;10.050;2023-06-22T08:26:27;5.75;;;2.13;;
74471;SDS011;62920;53.572;10.050;2023-06-22T08:28:52;5.18;;;2.15;;
74471;SDS011;62920;53.572;10.050;2023-06-22T08:31:18;6.43;;;2.40;;
74471;SDS011;62920;53.572;10.050;2023-06-22T08:33:43;8.30;;;2.20;;
74471;SDS011;62920;53.572;10.050;2023-06-22T08:36:10;5.68;;;2.10;;
74471;SDS011;62920;53.572;10.050;2023-06-22T08:38:38;3.45;;;1.90;;
74471;SDS011;62920;53.572;10.050;2023-06-22T08:41:03;5.85;;;1.95;;
74471;SDS011;62920;53.572;10.050;2023-06-22T08:43:28;5.72;;;2.05;;
74471;SDS011;62920;53.572;10.050;2023-06-22T08:45:54;5.28;;;2.15;;
74471;SDS011;62920;53.572;10.050;2023-06-22T08:48:19;4.95;;;1.85;;
74471;SDS011;62920;53.572;10.050;2023-06-22T08:50:44;4.13;;;2.17;;
74471;SDS011;62920;53.572;10.050;2023-06-22T08:53:10;4.40;;;2.03;;
74471;SDS011;62920;53.572;10.050;2023-06-22T08:55:35;4.10;;;1.75;;
74471;SDS011;62920;53.572;10.050;2023-06-22T08:58:01;3.95;;;1.90;;
74471;SDS011;62920;53.572;10.050;2023-06-22T09:00:26;4.63;;;2.10;;
74471;SDS011;62920;53.572;10.050;2023-06-22T09:02:54;4.60;;;2.10;;
74471;SDS011;62920;53.572;10.050;2023-06-22T09:05:23;5.25;;;2.00;;
74471;SDS011;62920;53.572;10.050;2023-06-22T09:07:50;5.28;;;2.10;;
74471;SDS011;62920;53.572;10.050;2023-06-22T09:10:15;3.90;;;2.05;;
74471;SDS011;62920;53.572;10.050;2023-06-22T09:12:44;4.45;;;2.33;;
74471;SDS011;62920;53.572;10.050;2023-06-22T09:15:09;4.53;;;1.90;;
74471;SDS011;62920;53.572;10.050;2023-06-22T09:17:35;4.95;;;2.00;;
74471;SDS011;62920;53.572;10.050;2023-06-22T09:20:01;3.92;;;1.80;;
74471;SDS011;62920;53.572;10.050;2023-06-22T09:22:27;5.07;;;2.20;;
74471;SDS011;62920;53.572;10.050;2023-06-22T09:24:54;5.70;;;2.33;;
74471;SDS011;62920;53.572;10.050;2023-06-22T09:27:21;4.85;;;2.05;;
74471;SDS011;62920;53.572;10.050;2023-06-22T09:29:47;4.40;;;2.20;;
74471;SDS011;62920;53.572;10.050;2023-06-22T09:34:38;6.78;;;2.60;;
74471;SDS011;62920;53.572;10.050;2023-06-22T09:37:03;5.10;;;2.25;;
74471;SDS011;62920;53.572;10.050;2023-06-22T09:39:30;3.95;;;2.10;;
74471;SDS011;62920;53.572;10.050;2023-06-22T09:44:23;6.32;;;2.72;;
74471;SDS011;62920;53.572;10.050;2023-06-22T09:49:13;5.35;;;2.30;;
74471;SDS011;62920;53.572;10.050;2023-06-22T09:51:39;5.45;;;2.13;;
74471;SDS011;62920;53.572;10.050;2023-06-22T09:56:29;4.23;;;2.07;;
74471;SDS011;62920;53.572;10.050;2023-06-22T10:01:20;5.43;;;2.10;;
74471;SDS011;62920;53.572;10.050;2023-06-22T10:03:46;4.75;;;2.30;;
74471;SDS011;62920;53.572;10.050;2023-06-22T10:06:12;5.22;;;2.20;;
74471;SDS011;62920;53.572;10.050;2023-06-22T10:11:03;4.72;;;2.20;;
74471;SDS011;62920;53.572;10.050;2023-06-22T10:13:28;4.30;;;1.95;;
74471;SDS011;62920;53.572;10.050;2023-06-22T10:18:19;4.38;;;1.80;;
74471;SDS011;62920;53.572;10.050;2023-06-22T10:20:47;5.25;;;1.95;;
74471;SDS011;62920;53.572;10.050;2023-06-22T10:23:13;5.30;;;2.28;;
74471;SDS011;62920;53.572;10.050;2023-06-22T10:25:38;3.78;;;1.77;;
74471;SDS011;62920;53.572;10.050;2023-06-22T10:28:03;6.97;;;2.10;;
74471;SDS011;62920;53.572;10.050;2023-06-22T10:30:29;4.13;;;1.70;;
74471;SDS011;62920;53.572;10.050;2023-06-22T10:32:54;3.75;;;2.10;;
74471;SDS011;62920;53.572;10.050;2023-06-22T10:35:19;5.00;;;2.13;;
74471;SDS011;62920;53.572;10.050;2023-06-22T10:37:45;6.00;;;2.00;;
74471;SDS011;62920;53.572;10.050;2023-06-22T10:40:12;5.38;;;2.03;;
74471;SDS011;62920;53.572;10.050;2023-06-22T10:42:38;7.03;;;2.10;;
74471;SDS011;62920;53.572;10.050;2023-06-22T10:45:04;6.30;;;2.60;;
74471;SDS011;62920;53.572;10.050;2023-06-22T10:47:29;6.93;;;2.40;;
74471;SDS011;62920;53.572;10.050;2023-06-22T10:52:20;6.17;;;2.70;;
74471;SDS011;62920;53.572;10.050;2023-06-22T10:57:10;5.25;;;2.47;;
74471;SDS011;62920;53.572;10.050;2023-06-22T10:59:36;5.28;;;2.50;;
74471;SDS011;62920;53.572;10.050;2023-06-22T11:02:01;4.72;;;2.33;;
74471;SDS011;62920;53.572;10.050;2023-06-22T11:06:52;11.95;;;3.78;;
74471;SDS011;62920;53.572;10.050;2023-06-22T11:11:46;5.88;;;2.38;;
74471;SDS011;62920;53.572;10.050;2023-06-22T11:14:15;6.53;;;2.83;;
74471;SDS011;62920;53.572;10.050;2023-06-22T11:19:05;5.87;;;2.00;;
74471;SDS011;62920;53.572;10.050;2023-06-22T11:23:57;5.88;;;2.58;;
74471;SDS011;62920;53.572;10.050;2023-06-22T11:26:23;7.13;;;2.85;;
74471;SDS011;62920;53.572;10.050;2023-06-22T11:31:14;4.87;;;2.50;;
74471;SDS011;62920;53.572;10.050;2023-06-22T11:36:05;4.57;;;2.73;;
74471;SDS011;62920;53.572;10.050;2023-06-22T11:40:57;4.95;;;2.65;;
74471;SDS011;62920;53.572;10.050;2023-06-22T11:43:23;5.47;;;2.97;;
74471;SDS011;62920;53.572;10.050;2023-06-22T11:48:13;5.50;;;2.70;;
74471;SDS011;62920;53.572;10.050;2023-06-22T11:50:39;4.18;;;2.47;;
74471;SDS011;62920;53.572;10.050;2023-06-22T11:53:04;6.15;;;3.13;;
74471;SDS011;62920;53.572;10.050;2023-06-22T11:55:29;6.72;;;2.60;;
74471;SDS011;62920;53.572;10.050;2023-06-22T12:00:21;5.05;;;3.05;;
74471;SDS011;62920;53.572;10.050;2023-06-22T12:02:49;5.57;;;3.45;;
74471;SDS011;62920;53.572;10.050;2023-06-22T12:05:16;5.30;;;3.40;;
74471;SDS011;62920;53.572;10.050;2023-06-22T12:10:07;6.67;;;3.60;;
74471;SDS011;62920;53.572;10.050;2023-06-22T12:12:32;9.50;;;4.07;;
74471;SDS011;62920;53.572;10.050;2023-06-22T12:14:58;5.72;;;3.88;;
74471;SDS011;62920;53.572;10.050;2023-06-22T12:17:28;6.65;;;3.58;;
74471;SDS011;62920;53.572;10.050;2023-06-22T12:22:18;5.07;;;3.30;;
74471;SDS011;62920;53.572;10.050;2023-06-22T12:24:44;5.70;;;3.50;;
74471;SDS011;62920;53.572;10.050;2023-06-22T12:29:35;6.57;;;3.90;;
74471;SDS011;62920;53.572;10.050;2023-06-22T12:32:00;7.80;;;4.03;;
74471;SDS011;62920;53.572;10.050;2023-06-22T12:36:51;5.83;;;3.80;;
74471;SDS011;62920;53.572;10.050;2023-06-22T12:39:19;6.47;;;3.35;;
74471;SDS011;62920;53.572;10.050;2023-06-22T12:41:44;6.93;;;3.55;;
74471;SDS011;62920;53.572;10.050;2023-06-22T12:44:09;6.82;;;3.38;;
74471;SDS011;62920;53.572;10.050;2023-06-22T12:46:35;6.05;;;3.45;;
74471;SDS011;62920;53.572;10.050;2023-06-22T12:49:02;5.63;;;3.55;;
74471;SDS011;62920;53.572;10.050;2023-06-22T12:51:29;6.30;;;3.60;;
74471;SDS011;62920;53.572;10.050;2023-06-22T12:53:54;10.15;;;3.75;;
74471;SDS011;62920;53.572;10.050;2023-06-22T12:56:19;4.88;;;3.40;;
74471;SDS011;62920;53.572;10.050;2023-06-22T12:58:45;8.02;;;4.10;;
74471;SDS011;62920;53.572;10.050;2023-06-22T13:01:10;6.28;;;3.38;;
74471;SDS011;62920;53.572;10.050;2023-06-22T13:03:35;6.57;;;3.50;;
74471;SDS011;62920;53.572;10.050;2023-06-22T13:06:01;5.75;;;3.55;;
74471;SDS011;62920;53.572;10.050;2023-06-22T13:08:27;4.78;;;3.28;;
74471;SDS011;62920;53.572;10.050;2023-06-22T13:10:52;6.28;;;3.53;;
74471;SDS011;62920;53.572;10.050;2023-06-22T13:13:18;7.63;;;3.80;;
74471;SDS011;62920;53.572;10.050;2023-06-22T13:15:43;6.65;;;3.75;;
74471;SDS011;62920;53.572;10.050;2023-06-22T13:18:08;5.30;;;3.20;;
74471;SDS011;62920;53.572;10.050;2023-06-22T13:20:34;5.28;;;3.67;;
74471;SDS011;62920;53.572;10.050;2023-06-22T13:22:59;6.53;;;3.60;;
74471;SDS011;62920;53.572;10.050;2023-06-22T13:25:25;5.82;;;3.55;;
74471;SDS011;62920;53.572;10.050;2023-06-22T13:27:51;5.43;;;3.67;;
74471;SDS011;62920;53.572;10.050;2023-06-22T13:30:16;6.25;;;3.50;;
74471;SDS011;62920;53.572;10.050;2023-06-22T13:32:42;7.53;;;3.83;;
74471;SDS011;62920;53.572;10.050;2023-06-22T13:35:08;7.75;;;3.50;;
74471;SDS011;62920;53.572;10.050;2023-06-22T13:37:34;6.03;;;3.70;;
74471;SDS011;62920;53.572;10.050;2023-06-22T13:40:00;7.53;;;3.35;;
74471;SDS011;62920;53.572;10.050;2023-06-22T13:42:27;6.45;;;3.53;;
74471;SDS011;62920;53.572;10.050;2023-06-22T13:44:53;7.47;;;3.95;;
74471;SDS011;62920;53.572;10.050;2023-06-22T13:47:18;5.80;;;3.40;;
74471;SDS011;62920;53.572;10.050;2023-06-22T13:49:43;6.82;;;3.78;;
74471;SDS011;62920;53.572;10.050;2023-06-22T13:52:09;5.97;;;3.42;;
74471;SDS011;62920;53.572;10.050;2023-06-22T13:54:35;7.03;;;3.70;;
74471;SDS011;62920;53.572;10.050;2023-06-22T13:57:01;6.50;;;3.90;;
74471;SDS011;62920;53.572;10.050;2023-06-22T13:59:27;6.13;;;3.30;;
74471;SDS011;62920;53.572;10.050;2023-06-22T14:04:18;6.47;;;3.47;;
74471;SDS011;62920;53.572;10.050;2023-06-22T14:06:44;5.60;;;3.13;;
74471;SDS011;62920;53.572;10.050;2023-06-22T14:09:09;7.57;;;3.47;;
74471;SDS011;62920;53.572;10.050;2023-06-22T14:11:34;5.30;;;3.42;;
74471;SDS011;62920;53.572;10.050;2023-06-22T14:14:00;6.93;;;3.72;;
74471;SDS011;62920;53.572;10.050;2023-06-22T14:16:25;10.38;;;4.13;;
74471;SDS011;62920;53.572;10.050;2023-06-22T14:18:51;6.03;;;3.58;;
74471;SDS011;62920;53.572;10.050;2023-06-22T14:21:16;6.63;;;3.75;;
74471;SDS011;62920;53.572;10.050;2023-06-22T14:23:41;6.45;;;3.90;;
74471;SDS011;62920;53.572;10.050;2023-06-22T14:26:07;5.00;;;3.50;;
74471;SDS011;62920;53.572;10.050;2023-06-22T14:28:32;6.68;;;3.70;;
74471;SDS011;62920;53.572;10.050;2023-06-22T14:30:58;6.45;;;3.58;;
74471;SDS011;62920;53.572;10.050;2023-06-22T14:33:23;5.43;;;3.60;;
74471;SDS011;62920;53.572;10.050;2023-06-22T14:35:48;6.78;;;3.85;;
74471;SDS011;62920;53.572;10.050;2023-06-22T14:38:14;6.78;;;3.47;;
74471;SDS011;62920;53.572;10.050;2023-06-22T14:40:39;5.53;;;3.70;;
74471;SDS011;62920;53.572;10.050;2023-06-22T14:43:05;6.18;;;3.78;;
74471;SDS011;62920;53.572;10.050;2023-06-22T14:45:30;6.90;;;3.83;;
74471;SDS011;62920;53.572;10.050;2023-06-22T14:47:56;6.72;;;3.90;;
74471;SDS011;62920;53.572;10.050;2023-06-22T14:50:21;7.60;;;4.07;;
74471;SDS011;62920;53.572;10.050;2023-06-22T14:52:47;7.70;;;4.40;;
74471;SDS011;62920;53.572;10.050;2023-06-22T14:55:12;6.55;;;4.05;;
74471;SDS011;62920;53.572;10.050;2023-06-22T14:57:37;8.75;;;4.88;;
74471;SDS011;62920;53.572;10.050;2023-06-22T15:00:03;6.82;;;4.18;;
74471;SDS011;62920;53.572;10.050;2023-06-22T15:02:31;6.80;;;4.65;;
74471;SDS011;62920;53.572;10.050;2023-06-22T15:04:56;9.73;;;4.50;;
74471;SDS011;62920;53.572;10.050;2023-06-22T15:07:22;7.57;;;3.90;;
74471;SDS011;62920;53.572;10.050;2023-06-22T15:09:47;7.95;;;4.32;;
74471;SDS011;62920;53.572;10.050;2023-06-22T15:12:13;8.13;;;3.45;;
74471;SDS011;62920;53.572;10.050;2023-06-22T15:14:39;8.55;;;4.13;;
74471;SDS011;62920;53.572;10.050;2023-06-22T15:17:06;8.15;;;4.70;;
74471;SDS011;62920;53.572;10.050;2023-06-22T15:19:34;7.28;;;5.03;;
74471;SDS011;62920;53.572;10.050;2023-06-22T15:22:00;6.90;;;4.43;;
74471;SDS011;62920;53.572;10.050;2023-06-22T15:24:26;8.23;;;4.60;;
74471;SDS011;62920;53.572;10.050;2023-06-22T15:26:51;7.78;;;4.68;;
74471;SDS011;62920;53.572;10.050;2023-06-22T15:29:16;7.40;;;3.95;;
74471;SDS011;62920;53.572;10.050;2023-06-22T15:31:42;6.85;;;4.00;;
74471;SDS011;62920;53.572;10.050;2023-06-22T15:34:07;8.43;;;4.03;;
74471;SDS011;62920;53.572;10.050;2023-06-22T15:36:32;7.03;;;3.72;;
74471;SDS011;62920;53.572;10.050;2023-06-22T15:38:58;6.72;;;3.80;;
74471;SDS011;62920;53.572;10.050;2023-06-22T15:41:24;6.18;;;3.80;;
74471;SDS011;62920;53.572;10.050;2023-06-22T15:43:49;5.20;;;3.50;;
74471;SDS011;62920;53.572;10.050;2023-06-22T15:46:15;8.65;;;3.75;;
74471;SDS011;62920;53.572;10.050;2023-06-22T15:48:42;5.68;;;3.25;;